Pagrindinis puslapis
METAR-TAF:

METAR-TAF

Oro uostai :

Rabato oro uostas

Rabatas, Marokas

platuma: 34-03N, ilguma: 006-46W, Aukštis: 84 m

Dabartinis oras

Ataskaita buvo paskelbta 21 minutes, ne 04:30 UTC
Vėjas 1 kt nuo kintamojo kryptimis
Temperatūra 19°C
Drėgmė 88%
Slėgis 1015 hPa
Matomumas: 5000 m
Išsisklaidę debesys ne aukštis 1600 ft

METAR: GMME 180430Z VRB01KT 5000 SCT016 19/17 Q1015 NOSIG

Laikas: 05:51 (04:51 UTC)

Prognozė

Ataskaita buvo paskelbta 5 valandos ir 51 minutes, ne 23:00 UTC
Prognozė galioja nuo 18 metu 00 UTC su 19 metu 06 UTC
Vėjas 6 kt iš Šiaurės/Šiaurės Vakarų
Matomumas: 8000 m
Išsisklaidę debesys ne aukštis 2000 ft
Laikinai
nuo 18 metu 04 UTC su 18 metu 08 UTC
Vėjas 2 kt nuo kintamojo kryptimis
Matomumas: 4000 m
Su prošvaistėmis ne aukštis 800 ft
rūkana

TAF: GMME 172300Z 1800/1906 33006KT 8000 SCT020 TEMPO 1804/1808 VRB02KT 4000 BR BKN008

Orai ataskaitas ir orų prognozės (METAR, TAF).

turimą stotys yra geltonos ir raudonos taškus žemėlapyje.

Perkelti pele per norėdami pamatyti stoties vardą.

Tada spustelėkite, norėdami matyti oro stebėjimo ir prognozės.

Norėdami pakeisti žemėlapį: spustelėkite ant žalios mygtukų su juodo kryžiaus žemyn,; žalią mygtuką su brūkšneliu, jei norite nutolinti; arba žalių rodyklių gretimoms žemėlapius.


METAR-TAF: